sensor_id;sensor_type;location;lat;lon;timestamp;P1;durP1;ratioP1;P2;durP2;ratioP2
18302;SDS011;9277;37.980;23.748;2022-11-20T00:00:12;7.80;;;3.22;;
18302;SDS011;9277;37.980;23.748;2022-11-20T00:02:39;8.48;;;2.38;;
18302;SDS011;9277;37.980;23.748;2022-11-20T00:05:07;9.20;;;2.17;;
18302;SDS011;9277;37.980;23.748;2022-11-20T00:07:35;8.80;;;2.28;;
18302;SDS011;9277;37.980;23.748;2022-11-20T00:10:02;10.57;;;2.70;;
18302;SDS011;9277;37.980;23.748;2022-11-20T00:12:29;8.30;;;1.60;;
18302;SDS011;9277;37.980;23.748;2022-11-20T00:14:55;10.48;;;2.15;;
18302;SDS011;9277;37.980;23.748;2022-11-20T00:17:22;12.60;;;2.65;;
18302;SDS011;9277;37.980;23.748;2022-11-20T00:19:49;7.38;;;2.30;;
18302;SDS011;9277;37.980;23.748;2022-11-20T00:22:15;9.32;;;2.38;;
18302;SDS011;9277;37.980;23.748;2022-11-20T00:24:44;13.50;;;2.00;;
18302;SDS011;9277;37.980;23.748;2022-11-20T00:27:10;5.07;;;1.77;;
18302;SDS011;9277;37.980;23.748;2022-11-20T00:29:37;6.93;;;2.35;;
18302;SDS011;9277;37.980;23.748;2022-11-20T00:32:04;4.15;;;2.20;;
18302;SDS011;9277;37.980;23.748;2022-11-20T00:34:31;7.82;;;2.28;;
18302;SDS011;9277;37.980;23.748;2022-11-20T00:36:57;3.88;;;2.13;;
18302;SDS011;9277;37.980;23.748;2022-11-20T00:39:24;9.60;;;2.05;;
18302;SDS011;9277;37.980;23.748;2022-11-20T00:41:52;7.10;;;1.95;;
18302;SDS011;9277;37.980;23.748;2022-11-20T00:44:19;9.68;;;2.08;;
18302;SDS011;9277;37.980;23.748;2022-11-20T00:46:46;5.07;;;1.90;;
18302;SDS011;9277;37.980;23.748;2022-11-20T00:49:13;5.82;;;2.20;;
18302;SDS011;9277;37.980;23.748;2022-11-20T00:51:40;7.22;;;1.95;;
18302;SDS011;9277;37.980;23.748;2022-11-20T00:54:07;7.88;;;1.67;;
18302;SDS011;9277;37.980;23.748;2022-11-20T00:56:34;9.77;;;2.05;;
18302;SDS011;9277;37.980;23.748;2022-11-20T00:59:02;5.63;;;2.17;;
18302;SDS011;9277;37.980;23.748;2022-11-20T01:01:29;8.05;;;1.95;;
18302;SDS011;9277;37.980;23.748;2022-11-20T01:03:56;7.93;;;2.10;;
18302;SDS011;9277;37.980;23.748;2022-11-20T01:06:24;3.33;;;1.80;;
18302;SDS011;9277;37.980;23.748;2022-11-20T01:08:52;2.90;;;1.95;;
18302;SDS011;9277;37.980;23.748;2022-11-20T01:11:20;8.95;;;1.83;;
18302;SDS011;9277;37.980;23.748;2022-11-20T01:13:48;8.18;;;1.45;;
18302;SDS011;9277;37.980;23.748;2022-11-20T01:16:17;5.05;;;1.30;;
18302;SDS011;9277;37.980;23.748;2022-11-20T01:18:44;6.05;;;1.73;;
18302;SDS011;9277;37.980;23.748;2022-11-20T01:21:12;12.77;;;2.20;;
18302;SDS011;9277;37.980;23.748;2022-11-20T01:23:39;7.80;;;2.15;;
18302;SDS011;9277;37.980;23.748;2022-11-20T01:26:07;3.15;;;1.85;;
18302;SDS011;9277;37.980;23.748;2022-11-20T01:28:34;5.03;;;2.03;;
18302;SDS011;9277;37.980;23.748;2022-11-20T01:31:01;9.98;;;1.90;;
18302;SDS011;9277;37.980;23.748;2022-11-20T01:33:29;6.93;;;1.38;;
18302;SDS011;9277;37.980;23.748;2022-11-20T01:36:02;8.93;;;2.33;;
18302;SDS011;9277;37.980;23.748;2022-11-20T01:38:29;6.20;;;1.67;;
18302;SDS011;9277;37.980;23.748;2022-11-20T01:40:56;3.17;;;1.60;;
18302;SDS011;9277;37.980;23.748;2022-11-20T01:43:23;3.63;;;1.45;;
18302;SDS011;9277;37.980;23.748;2022-11-20T01:45:59;2.95;;;1.70;;
18302;SDS011;9277;37.980;23.748;2022-11-20T01:48:27;8.20;;;1.08;;
18302;SDS011;9277;37.980;23.748;2022-11-20T01:50:56;6.70;;;1.65;;
18302;SDS011;9277;37.980;23.748;2022-11-20T01:53:24;4.85;;;2.33;;
18302;SDS011;9277;37.980;23.748;2022-11-20T01:55:52;13.15;;;2.45;;
18302;SDS011;9277;37.980;23.748;2022-11-20T01:58:20;9.55;;;1.40;;
18302;SDS011;9277;37.980;23.748;2022-11-20T02:00:48;9.63;;;1.50;;
18302;SDS011;9277;37.980;23.748;2022-11-20T02:03:16;3.65;;;2.00;;
18302;SDS011;9277;37.980;23.748;2022-11-20T02:05:44;5.57;;;1.77;;
18302;SDS011;9277;37.980;23.748;2022-11-20T02:08:13;4.85;;;1.67;;
18302;SDS011;9277;37.980;23.748;2022-11-20T02:10:40;4.63;;;1.50;;
18302;SDS011;9277;37.980;23.748;2022-11-20T02:13:07;6.85;;;1.70;;
18302;SDS011;9277;37.980;23.748;2022-11-20T02:15:51;3.20;;;1.70;;
18302;SDS011;9277;37.980;23.748;2022-11-20T02:18:19;7.40;;;1.70;;
18302;SDS011;9277;37.980;23.748;2022-11-20T02:20:46;3.13;;;1.35;;
18302;SDS011;9277;37.980;23.748;2022-11-20T02:23:16;7.70;;;2.20;;
18302;SDS011;9277;37.980;23.748;2022-11-20T02:25:46;6.97;;;1.70;;
18302;SDS011;9277;37.980;23.748;2022-11-20T02:28:13;5.68;;;1.80;;
18302;SDS011;9277;37.980;23.748;2022-11-20T02:30:41;3.08;;;1.60;;
18302;SDS011;9277;37.980;23.748;2022-11-20T02:33:08;7.18;;;1.90;;
18302;SDS011;9277;37.980;23.748;2022-11-20T02:35:42;9.30;;;1.70;;
18302;SDS011;9277;37.980;23.748;2022-11-20T02:38:09;4.25;;;2.03;;
18302;SDS011;9277;37.980;23.748;2022-11-20T02:40:36;16.70;;;2.15;;
18302;SDS011;9277;37.980;23.748;2022-11-20T02:43:04;9.63;;;2.40;;
18302;SDS011;9277;37.980;23.748;2022-11-20T02:47:57;11.70;;;2.28;;
18302;SDS011;9277;37.980;23.748;2022-11-20T02:50:24;3.58;;;2.00;;
18302;SDS011;9277;37.980;23.748;2022-11-20T02:52:51;12.18;;;2.65;;
18302;SDS011;9277;37.980;23.748;2022-11-20T02:55:18;8.10;;;1.70;;
18302;SDS011;9277;37.980;23.748;2022-11-20T02:57:44;11.82;;;2.28;;
18302;SDS011;9277;37.980;23.748;2022-11-20T03:02:41;4.72;;;2.00;;
18302;SDS011;9277;37.980;23.748;2022-11-20T03:05:08;4.95;;;1.60;;
18302;SDS011;9277;37.980;23.748;2022-11-20T03:07:34;5.05;;;1.65;;
18302;SDS011;9277;37.980;23.748;2022-11-20T03:10:01;12.32;;;2.38;;
18302;SDS011;9277;37.980;23.748;2022-11-20T03:12:28;11.68;;;1.77;;
18302;SDS011;9277;37.980;23.748;2022-11-20T03:14:55;9.63;;;2.20;;
18302;SDS011;9277;37.980;23.748;2022-11-20T03:17:21;11.20;;;1.70;;
18302;SDS011;9277;37.980;23.748;2022-11-20T03:19:49;7.65;;;1.63;;
18302;SDS011;9277;37.980;23.748;2022-11-20T03:22:16;11.30;;;2.72;;
18302;SDS011;9277;37.980;23.748;2022-11-20T03:24:43;10.32;;;2.72;;
18302;SDS011;9277;37.980;23.748;2022-11-20T03:27:10;5.85;;;1.88;;
18302;SDS011;9277;37.980;23.748;2022-11-20T03:29:36;5.63;;;2.20;;
18302;SDS011;9277;37.980;23.748;2022-11-20T03:32:03;6.93;;;2.05;;
18302;SDS011;9277;37.980;23.748;2022-11-20T03:34:30;6.53;;;2.05;;
18302;SDS011;9277;37.980;23.748;2022-11-20T03:36:58;10.98;;;2.22;;
18302;SDS011;9277;37.980;23.748;2022-11-20T03:39:25;7.90;;;1.67;;
18302;SDS011;9277;37.980;23.748;2022-11-20T03:41:52;10.88;;;2.42;;
18302;SDS011;9277;37.980;23.748;2022-11-20T03:44:20;5.88;;;1.58;;
18302;SDS011;9277;37.980;23.748;2022-11-20T03:46:47;10.23;;;1.80;;
18302;SDS011;9277;37.980;23.748;2022-11-20T03:49:14;10.27;;;2.15;;
18302;SDS011;9277;37.980;23.748;2022-11-20T03:51:41;11.40;;;1.85;;
18302;SDS011;9277;37.980;23.748;2022-11-20T03:54:09;13.43;;;2.50;;
18302;SDS011;9277;37.980;23.748;2022-11-20T03:56:36;8.57;;;2.20;;
18302;SDS011;9277;37.980;23.748;2022-11-20T03:59:04;5.50;;;1.88;;
18302;SDS011;9277;37.980;23.748;2022-11-20T04:01:31;15.50;;;2.00;;
18302;SDS011;9277;37.980;23.748;2022-11-20T04:03:58;11.32;;;2.13;;
18302;SDS011;9277;37.980;23.748;2022-11-20T04:06:26;14.30;;;2.42;;
18302;SDS011;9277;37.980;23.748;2022-11-20T04:08:53;6.65;;;2.50;;
18302;SDS011;9277;37.980;23.748;2022-11-20T04:11:23;6.95;;;1.50;;
18302;SDS011;9277;37.980;23.748;2022-11-20T04:13:50;9.68;;;1.92;;
18302;SDS011;9277;37.980;23.748;2022-11-20T04:16:17;15.65;;;2.42;;
18302;SDS011;9277;37.980;23.748;2022-11-20T04:18:44;9.13;;;1.85;;
18302;SDS011;9277;37.980;23.748;2022-11-20T04:21:11;15.80;;;2.00;;
18302;SDS011;9277;37.980;23.748;2022-11-20T04:23:38;6.82;;;2.50;;
18302;SDS011;9277;37.980;23.748;2022-11-20T04:26:06;7.97;;;2.10;;
18302;SDS011;9277;37.980;23.748;2022-11-20T04:28:34;12.95;;;1.80;;
18302;SDS011;9277;37.980;23.748;2022-11-20T04:31:01;8.30;;;2.33;;
18302;SDS011;9277;37.980;23.748;2022-11-20T04:33:28;12.32;;;2.85;;
18302;SDS011;9277;37.980;23.748;2022-11-20T04:35:55;11.00;;;2.03;;
18302;SDS011;9277;37.980;23.748;2022-11-20T04:38:25;13.50;;;1.70;;
18302;SDS011;9277;37.980;23.748;2022-11-20T04:40:55;11.98;;;1.75;;
18302;SDS011;9277;37.980;23.748;2022-11-20T04:43:22;16.17;;;2.85;;
18302;SDS011;9277;37.980;23.748;2022-11-20T04:45:51;4.13;;;1.58;;
18302;SDS011;9277;37.980;23.748;2022-11-20T04:48:18;7.78;;;2.22;;
18302;SDS011;9277;37.980;23.748;2022-11-20T04:50:45;5.70;;;2.10;;
18302;SDS011;9277;37.980;23.748;2022-11-20T04:53:11;7.47;;;2.30;;
18302;SDS011;9277;37.980;23.748;2022-11-20T04:55:38;18.73;;;2.42;;
18302;SDS011;9277;37.980;23.748;2022-11-20T04:58:05;10.75;;;2.58;;
18302;SDS011;9277;37.980;23.748;2022-11-20T05:00:32;8.07;;;1.75;;
18302;SDS011;9277;37.980;23.748;2022-11-20T05:03:00;9.02;;;2.30;;
18302;SDS011;9277;37.980;23.748;2022-11-20T05:05:27;10.45;;;2.53;;
18302;SDS011;9277;37.980;23.748;2022-11-20T05:07:55;15.38;;;2.20;;
18302;SDS011;9277;37.980;23.748;2022-11-20T05:10:22;8.55;;;1.90;;
18302;SDS011;9277;37.980;23.748;2022-11-20T05:12:49;9.70;;;2.50;;
18302;SDS011;9277;37.980;23.748;2022-11-20T05:15:16;13.18;;;3.13;;
18302;SDS011;9277;37.980;23.748;2022-11-20T05:17:46;8.50;;;2.20;;
18302;SDS011;9277;37.980;23.748;2022-11-20T05:20:14;18.55;;;2.38;;
18302;SDS011;9277;37.980;23.748;2022-11-20T05:22:41;13.25;;;2.75;;
18302;SDS011;9277;37.980;23.748;2022-11-20T05:25:08;11.82;;;2.42;;
18302;SDS011;9277;37.980;23.748;2022-11-20T05:27:35;18.10;;;2.38;;
18302;SDS011;9277;37.980;23.748;2022-11-20T05:30:02;16.98;;;2.88;;
18302;SDS011;9277;37.980;23.748;2022-11-20T05:32:29;13.43;;;3.50;;
18302;SDS011;9277;37.980;23.748;2022-11-20T05:34:56;13.63;;;2.83;;
18302;SDS011;9277;37.980;23.748;2022-11-20T05:37:24;16.13;;;2.35;;
18302;SDS011;9277;37.980;23.748;2022-11-20T05:39:51;14.52;;;2.65;;
18302;SDS011;9277;37.980;23.748;2022-11-20T05:42:18;12.85;;;2.50;;
18302;SDS011;9277;37.980;23.748;2022-11-20T05:44:56;20.15;;;2.78;;
18302;SDS011;9277;37.980;23.748;2022-11-20T05:47:23;12.68;;;2.75;;
18302;SDS011;9277;37.980;23.748;2022-11-20T05:49:50;16.42;;;2.40;;
18302;SDS011;9277;37.980;23.748;2022-11-20T05:52:17;13.18;;;2.35;;
18302;SDS011;9277;37.980;23.748;2022-11-20T05:54:45;14.43;;;2.83;;
18302;SDS011;9277;37.980;23.748;2022-11-20T05:57:11;14.50;;;2.33;;
18302;SDS011;9277;37.980;23.748;2022-11-20T05:59:38;12.77;;;2.33;;
18302;SDS011;9277;37.980;23.748;2022-11-20T06:02:05;22.95;;;2.95;;
18302;SDS011;9277;37.980;23.748;2022-11-20T06:04:32;13.23;;;2.60;;
18302;SDS011;9277;37.980;23.748;2022-11-20T06:06:59;23.33;;;3.30;;
18302;SDS011;9277;37.980;23.748;2022-11-20T06:09:26;16.75;;;2.30;;
18302;SDS011;9277;37.980;23.748;2022-11-20T06:11:54;20.58;;;3.15;;
18302;SDS011;9277;37.980;23.748;2022-11-20T06:14:21;14.70;;;3.10;;
18302;SDS011;9277;37.980;23.748;2022-11-20T06:16:48;20.88;;;2.85;;
18302;SDS011;9277;37.980;23.748;2022-11-20T06:19:15;10.55;;;3.15;;
18302;SDS011;9277;37.980;23.748;2022-11-20T06:21:42;16.45;;;3.13;;
18302;SDS011;9277;37.980;23.748;2022-11-20T06:24:09;33.35;;;4.07;;
18302;SDS011;9277;37.980;23.748;2022-11-20T06:26:36;22.63;;;3.80;;
18302;SDS011;9277;37.980;23.748;2022-11-20T06:29:04;29.63;;;3.53;;
18302;SDS011;9277;37.980;23.748;2022-11-20T06:31:31;22.17;;;3.25;;
18302;SDS011;9277;37.980;23.748;2022-11-20T06:34:02;18.15;;;3.30;;
18302;SDS011;9277;37.980;23.748;2022-11-20T06:36:29;25.90;;;3.60;;
18302;SDS011;9277;37.980;23.748;2022-11-20T06:38:56;23.02;;;3.13;;
18302;SDS011;9277;37.980;23.748;2022-11-20T06:41:23;14.13;;;2.55;;
18302;SDS011;9277;37.980;23.748;2022-11-20T06:43:50;25.20;;;3.05;;
18302;SDS011;9277;37.980;23.748;2022-11-20T06:46:19;18.23;;;3.95;;
18302;SDS011;9277;37.980;23.748;2022-11-20T06:48:46;21.45;;;3.17;;
18302;SDS011;9277;37.980;23.748;2022-11-20T06:51:13;32.05;;;4.05;;
18302;SDS011;9277;37.980;23.748;2022-11-20T06:53:39;16.77;;;3.28;;
18302;SDS011;9277;37.980;23.748;2022-11-20T06:56:06;20.75;;;3.55;;
18302;SDS011;9277;37.980;23.748;2022-11-20T06:58:34;13.75;;;2.95;;
18302;SDS011;9277;37.980;23.748;2022-11-20T07:01:01;16.23;;;3.33;;
18302;SDS011;9277;37.980;23.748;2022-11-20T07:03:30;16.10;;;3.05;;
18302;SDS011;9277;37.980;23.748;2022-11-20T07:05:56;14.32;;;3.17;;
18302;SDS011;9277;37.980;23.748;2022-11-20T07:08:23;15.13;;;2.83;;
18302;SDS011;9277;37.980;23.748;2022-11-20T07:10:50;15.98;;;2.65;;
18302;SDS011;9277;37.980;23.748;2022-11-20T07:13:17;11.75;;;3.67;;
18302;SDS011;9277;37.980;23.748;2022-11-20T07:15:44;17.98;;;3.28;;
18302;SDS011;9277;37.980;23.748;2022-11-20T07:18:10;22.85;;;3.05;;
18302;SDS011;9277;37.980;23.748;2022-11-20T07:20:39;21.40;;;3.58;;
18302;SDS011;9277;37.980;23.748;2022-11-20T07:23:05;20.85;;;3.45;;
18302;SDS011;9277;37.980;23.748;2022-11-20T07:25:32;22.50;;;3.72;;
18302;SDS011;9277;37.980;23.748;2022-11-20T07:27:59;19.90;;;3.88;;
18302;SDS011;9277;37.980;23.748;2022-11-20T07:30:26;30.70;;;3.60;;
18302;SDS011;9277;37.980;23.748;2022-11-20T07:32:53;22.38;;;3.92;;
18302;SDS011;9277;37.980;23.748;2022-11-20T07:35:20;22.85;;;4.00;;
18302;SDS011;9277;37.980;23.748;2022-11-20T07:37:49;20.80;;;3.78;;
18302;SDS011;9277;37.980;23.748;2022-11-20T07:40:16;22.30;;;3.65;;
18302;SDS011;9277;37.980;23.748;2022-11-20T07:42:47;21.95;;;3.35;;
18302;SDS011;9277;37.980;23.748;2022-11-20T07:45:14;20.42;;;3.17;;
18302;SDS011;9277;37.980;23.748;2022-11-20T07:47:41;25.05;;;4.22;;
18302;SDS011;9277;37.980;23.748;2022-11-20T07:50:08;31.45;;;4.93;;
18302;SDS011;9277;37.980;23.748;2022-11-20T07:52:34;22.27;;;4.10;;
18302;SDS011;9277;37.980;23.748;2022-11-20T07:55:03;33.25;;;3.90;;
18302;SDS011;9277;37.980;23.748;2022-11-20T07:57:30;22.70;;;4.10;;
18302;SDS011;9277;37.980;23.748;2022-11-20T07:59:56;22.92;;;3.85;;
18302;SDS011;9277;37.980;23.748;2022-11-20T08:02:24;27.17;;;4.15;;
18302;SDS011;9277;37.980;23.748;2022-11-20T08:04:50;18.38;;;3.15;;
18302;SDS011;9277;37.980;23.748;2022-11-20T08:07:17;20.13;;;3.40;;
18302;SDS011;9277;37.980;23.748;2022-11-20T08:09:44;17.70;;;4.03;;
18302;SDS011;9277;37.980;23.748;2022-11-20T08:12:16;30.95;;;4.95;;
18302;SDS011;9277;37.980;23.748;2022-11-20T08:15:01;18.80;;;3.88;;
18302;SDS011;9277;37.980;23.748;2022-11-20T08:17:27;28.45;;;4.40;;
18302;SDS011;9277;37.980;23.748;2022-11-20T08:19:54;23.25;;;4.05;;
18302;SDS011;9277;37.980;23.748;2022-11-20T08:22:21;27.23;;;3.65;;
18302;SDS011;9277;37.980;23.748;2022-11-20T08:24:49;23.65;;;3.10;;
18302;SDS011;9277;37.980;23.748;2022-11-20T08:27:17;20.70;;;3.63;;
18302;SDS011;9277;37.980;23.748;2022-11-20T08:29:44;18.35;;;3.80;;
18302;SDS011;9277;37.980;23.748;2022-11-20T08:32:11;31.58;;;4.68;;
18302;SDS011;9277;37.980;23.748;2022-11-20T08:34:38;30.58;;;4.55;;
18302;SDS011;9277;37.980;23.748;2022-11-20T08:37:04;19.45;;;4.57;;
18302;SDS011;9277;37.980;23.748;2022-11-20T08:39:31;18.13;;;3.75;;
18302;SDS011;9277;37.980;23.748;2022-11-20T08:41:58;21.23;;;4.00;;
18302;SDS011;9277;37.980;23.748;2022-11-20T08:44:26;19.95;;;4.30;;
18302;SDS011;9277;37.980;23.748;2022-11-20T08:46:53;14.90;;;3.60;;
18302;SDS011;9277;37.980;23.748;2022-11-20T08:49:20;26.13;;;3.58;;
18302;SDS011;9277;37.980;23.748;2022-11-20T08:51:47;13.52;;;2.97;;
18302;SDS011;9277;37.980;23.748;2022-11-20T08:54:16;28.42;;;4.13;;
18302;SDS011;9277;37.980;23.748;2022-11-20T08:56:45;22.70;;;3.25;;
18302;SDS011;9277;37.980;23.748;2022-11-20T08:59:11;25.65;;;4.00;;
18302;SDS011;9277;37.980;23.748;2022-11-20T09:01:40;31.17;;;4.65;;
18302;SDS011;9277;37.980;23.748;2022-11-20T09:04:07;26.85;;;3.28;;
18302;SDS011;9277;37.980;23.748;2022-11-20T09:06:33;16.23;;;2.85;;
18302;SDS011;9277;37.980;23.748;2022-11-20T09:09:00;13.52;;;3.72;;
18302;SDS011;9277;37.980;23.748;2022-11-20T09:11:27;16.00;;;3.45;;
18302;SDS011;9277;37.980;23.748;2022-11-20T09:13:54;16.17;;;3.35;;
18302;SDS011;9277;37.980;23.748;2022-11-20T09:16:21;22.75;;;4.28;;
18302;SDS011;9277;37.980;23.748;2022-11-20T09:18:50;19.63;;;3.13;;
18302;SDS011;9277;37.980;23.748;2022-11-20T09:21:17;26.40;;;4.78;;
18302;SDS011;9277;37.980;23.748;2022-11-20T09:23:44;22.80;;;3.25;;
18302;SDS011;9277;37.980;23.748;2022-11-20T09:26:14;22.70;;;4.15;;
18302;SDS011;9277;37.980;23.748;2022-11-20T09:28:41;19.38;;;3.20;;
18302;SDS011;9277;37.980;23.748;2022-11-20T09:31:14;15.25;;;3.55;;
18302;SDS011;9277;37.980;23.748;2022-11-20T09:33:44;23.98;;;4.20;;
18302;SDS011;9277;37.980;23.748;2022-11-20T09:36:12;20.55;;;3.17;;
18302;SDS011;9277;37.980;23.748;2022-11-20T09:38:41;15.10;;;3.00;;
18302;SDS011;9277;37.980;23.748;2022-11-20T09:41:10;30.30;;;4.53;;
18302;SDS011;9277;37.980;23.748;2022-11-20T09:43:46;20.27;;;3.65;;
18302;SDS011;9277;37.980;23.748;2022-11-20T09:46:20;12.77;;;3.03;;
18302;SDS011;9277;37.980;23.748;2022-11-20T09:51:36;12.23;;;3.65;;
18302;SDS011;9277;37.980;23.748;2022-11-20T09:54:12;14.85;;;4.22;;
18302;SDS011;9277;37.980;23.748;2022-11-20T09:56:40;19.65;;;3.55;;
18302;SDS011;9277;37.980;23.748;2022-11-20T09:59:13;15.52;;;3.88;;
18302;SDS011;9277;37.980;23.748;2022-11-20T10:01:41;16.38;;;2.80;;
18302;SDS011;9277;37.980;23.748;2022-11-20T10:04:10;17.70;;;3.85;;
18302;SDS011;9277;37.980;23.748;2022-11-20T10:06:42;19.73;;;4.03;;
18302;SDS011;9277;37.980;23.748;2022-11-20T10:09:16;11.65;;;3.20;;
18302;SDS011;9277;37.980;23.748;2022-11-20T10:11:49;12.98;;;3.60;;
18302;SDS011;9277;37.980;23.748;2022-11-20T10:14:20;14.07;;;3.10;;
18302;SDS011;9277;37.980;23.748;2022-11-20T10:16:51;14.68;;;2.67;;
18302;SDS011;9277;37.980;23.748;2022-11-20T10:19:24;20.23;;;4.00;;
18302;SDS011;9277;37.980;23.748;2022-11-20T10:21:57;12.05;;;2.67;;
18302;SDS011;9277;37.980;23.748;2022-11-20T10:24:34;22.45;;;3.08;;
18302;SDS011;9277;37.980;23.748;2022-11-20T10:27:08;6.90;;;2.50;;
18302;SDS011;9277;37.980;23.748;2022-11-20T10:29:42;15.32;;;4.03;;
18302;SDS011;9277;37.980;23.748;2022-11-20T10:32:10;10.73;;;2.97;;
18302;SDS011;9277;37.980;23.748;2022-11-20T10:34:40;13.25;;;3.83;;
18302;SDS011;9277;37.980;23.748;2022-11-20T10:37:16;29.23;;;3.50;;
18302;SDS011;9277;37.980;23.748;2022-11-20T10:39:47;18.52;;;3.22;;
18302;SDS011;9277;37.980;23.748;2022-11-20T10:42:18;10.50;;;2.33;;
18302;SDS011;9277;37.980;23.748;2022-11-20T10:44:49;17.15;;;2.85;;
18302;SDS011;9277;37.980;23.748;2022-11-20T10:47:30;10.35;;;2.60;;
18302;SDS011;9277;37.980;23.748;2022-11-20T10:49:58;18.38;;;3.50;;
18302;SDS011;9277;37.980;23.748;2022-11-20T10:52:34;17.58;;;3.95;;
18302;SDS011;9277;37.980;23.748;2022-11-20T10:55:15;16.48;;;3.42;;
18302;SDS011;9277;37.980;23.748;2022-11-20T10:57:48;16.77;;;3.00;;
18302;SDS011;9277;37.980;23.748;2022-11-20T11:00:17;12.82;;;3.95;;
18302;SDS011;9277;37.980;23.748;2022-11-20T11:02:45;17.77;;;3.28;;
18302;SDS011;9277;37.980;23.748;2022-11-20T11:05:17;11.90;;;2.85;;
18302;SDS011;9277;37.980;23.748;2022-11-20T11:07:46;13.48;;;3.42;;
18302;SDS011;9277;37.980;23.748;2022-11-20T11:10:15;9.85;;;2.47;;
18302;SDS011;9277;37.980;23.748;2022-11-20T11:12:43;19.17;;;4.18;;
18302;SDS011;9277;37.980;23.748;2022-11-20T11:15:12;19.75;;;3.17;;
18302;SDS011;9277;37.980;23.748;2022-11-20T11:17:45;18.90;;;3.72;;
18302;SDS011;9277;37.980;23.748;2022-11-20T11:20:15;7.97;;;2.70;;
18302;SDS011;9277;37.980;23.748;2022-11-20T11:22:44;16.30;;;3.15;;
18302;SDS011;9277;37.980;23.748;2022-11-20T11:25:20;13.90;;;3.90;;
18302;SDS011;9277;37.980;23.748;2022-11-20T11:27:48;20.83;;;2.95;;
18302;SDS011;9277;37.980;23.748;2022-11-20T11:30:16;20.13;;;3.65;;
18302;SDS011;9277;37.980;23.748;2022-11-20T11:32:43;21.23;;;3.47;;
18302;SDS011;9277;37.980;23.748;2022-11-20T11:35:20;8.23;;;2.83;;
18302;SDS011;9277;37.980;23.748;2022-11-20T11:37:48;11.57;;;3.15;;
18302;SDS011;9277;37.980;23.748;2022-11-20T11:40:16;10.73;;;2.72;;
18302;SDS011;9277;37.980;23.748;2022-11-20T11:42:46;18.90;;;4.13;;
18302;SDS011;9277;37.980;23.748;2022-11-20T11:45:14;15.35;;;2.80;;
18302;SDS011;9277;37.980;23.748;2022-11-20T11:47:44;18.20;;;4.13;;
18302;SDS011;9277;37.980;23.748;2022-11-20T11:50:18;12.80;;;3.20;;
18302;SDS011;9277;37.980;23.748;2022-11-20T11:52:46;8.23;;;2.65;;
18302;SDS011;9277;37.980;23.748;2022-11-20T11:55:15;24.52;;;3.38;;
18302;SDS011;9277;37.980;23.748;2022-11-20T11:57:44;16.70;;;3.65;;
18302;SDS011;9277;37.980;23.748;2022-11-20T12:00:15;13.00;;;3.10;;
18302;SDS011;9277;37.980;23.748;2022-11-20T12:02:46;22.02;;;3.00;;
18302;SDS011;9277;37.980;23.748;2022-11-20T12:05:17;13.43;;;2.88;;
18302;SDS011;9277;37.980;23.748;2022-11-20T12:07:45;19.67;;;3.30;;
18302;SDS011;9277;37.980;23.748;2022-11-20T12:10:15;15.90;;;3.00;;
18302;SDS011;9277;37.980;23.748;2022-11-20T12:12:44;20.00;;;3.97;;
18302;SDS011;9277;37.980;23.748;2022-11-20T12:15:12;22.45;;;3.03;;
18302;SDS011;9277;37.980;23.748;2022-11-20T12:17:40;13.70;;;3.08;;
18302;SDS011;9277;37.980;23.748;2022-11-20T12:20:11;20.70;;;3.97;;
18302;SDS011;9277;37.980;23.748;2022-11-20T12:22:43;23.98;;;3.78;;
18302;SDS011;9277;37.980;23.748;2022-11-20T12:25:13;13.57;;;3.70;;
18302;SDS011;9277;37.980;23.748;2022-11-20T12:30:28;16.98;;;3.22;;
18302;SDS011;9277;37.980;23.748;2022-11-20T12:35:50;19.00;;;3.97;;
18302;SDS011;9277;37.980;23.748;2022-11-20T12:41:05;16.10;;;3.70;;
18302;SDS011;9277;37.980;23.748;2022-11-20T12:43:37;20.33;;;3.45;;
18302;SDS011;9277;37.980;23.748;2022-11-20T12:46:26;14.13;;;3.03;;
18302;SDS011;9277;37.980;23.748;2022-11-20T12:49:01;11.13;;;3.35;;
18302;SDS011;9277;37.980;23.748;2022-11-20T12:51:38;12.57;;;3.22;;
18302;SDS011;9277;37.980;23.748;2022-11-20T12:54:21;16.00;;;3.28;;
18302;SDS011;9277;37.980;23.748;2022-11-20T12:56:54;10.18;;;3.38;;
18302;SDS011;9277;37.980;23.748;2022-11-20T12:59:26;15.70;;;3.70;;
18302;SDS011;9277;37.980;23.748;2022-11-20T13:01:55;16.52;;;3.40;;
18302;SDS011;9277;37.980;23.748;2022-11-20T13:04:32;17.27;;;3.60;;
18302;SDS011;9277;37.980;23.748;2022-11-20T13:07:07;13.80;;;2.72;;
18302;SDS011;9277;37.980;23.748;2022-11-20T13:09:36;7.43;;;2.83;;
18302;SDS011;9277;37.980;23.748;2022-11-20T13:12:05;9.70;;;2.75;;
18302;SDS011;9277;37.980;23.748;2022-11-20T13:14:35;21.35;;;3.50;;
18302;SDS011;9277;37.980;23.748;2022-11-20T13:17:05;21.85;;;4.50;;
18302;SDS011;9277;37.980;23.748;2022-11-20T13:19:35;10.10;;;2.50;;
18302;SDS011;9277;37.980;23.748;2022-11-20T13:22:02;14.88;;;3.30;;
18302;SDS011;9277;37.980;23.748;2022-11-20T13:24:30;13.23;;;3.67;;
18302;SDS011;9277;37.980;23.748;2022-11-20T13:27:04;8.32;;;3.13;;
18302;SDS011;9277;37.980;23.748;2022-11-20T13:29:31;10.25;;;2.65;;
18302;SDS011;9277;37.980;23.748;2022-11-20T13:32:03;14.05;;;3.47;;
18302;SDS011;9277;37.980;23.748;2022-11-20T13:34:30;15.45;;;3.38;;
18302;SDS011;9277;37.980;23.748;2022-11-20T13:36:57;15.55;;;3.17;;
18302;SDS011;9277;37.980;23.748;2022-11-20T13:39:25;10.73;;;3.65;;
18302;SDS011;9277;37.980;23.748;2022-11-20T13:41:57;13.43;;;2.60;;
18302;SDS011;9277;37.980;23.748;2022-11-20T13:44:25;12.82;;;2.72;;
18302;SDS011;9277;37.980;23.748;2022-11-20T13:46:53;15.05;;;3.58;;
18302;SDS011;9277;37.980;23.748;2022-11-20T13:49:22;11.95;;;2.90;;
18302;SDS011;9277;37.980;23.748;2022-11-20T13:51:50;14.13;;;3.72;;
18302;SDS011;9277;37.980;23.748;2022-11-20T13:57:07;16.90;;;3.08;;
18302;SDS011;9277;37.980;23.748;2022-11-20T13:59:44;14.45;;;2.88;;
18302;SDS011;9277;37.980;23.748;2022-11-20T14:02:14;13.40;;;3.35;;
18302;SDS011;9277;37.980;23.748;2022-11-20T14:04:42;22.10;;;3.38;;
18302;SDS011;9277;37.980;23.748;2022-11-20T14:07:09;12.25;;;3.15;;
18302;SDS011;9277;37.980;23.748;2022-11-20T14:09:37;9.93;;;2.90;;
18302;SDS011;9277;37.980;23.748;2022-11-20T14:12:04;19.05;;;3.33;;
18302;SDS011;9277;37.980;23.748;2022-11-20T14:14:48;16.85;;;3.30;;
18302;SDS011;9277;37.980;23.748;2022-11-20T14:17:17;13.10;;;3.60;;
18302;SDS011;9277;37.980;23.748;2022-11-20T14:19:44;6.85;;;3.08;;
18302;SDS011;9277;37.980;23.748;2022-11-20T14:22:17;8.52;;;2.75;;
18302;SDS011;9277;37.980;23.748;2022-11-20T14:24:44;16.70;;;2.60;;
18302;SDS011;9277;37.980;23.748;2022-11-20T14:27:12;13.98;;;2.88;;
18302;SDS011;9277;37.980;23.748;2022-11-20T14:29:39;15.35;;;3.38;;
18302;SDS011;9277;37.980;23.748;2022-11-20T14:32:09;14.93;;;2.67;;
18302;SDS011;9277;37.980;23.748;2022-11-20T14:34:37;15.80;;;3.30;;
18302;SDS011;9277;37.980;23.748;2022-11-20T14:37:09;10.75;;;2.83;;
18302;SDS011;9277;37.980;23.748;2022-11-20T14:39:37;15.30;;;2.88;;
18302;SDS011;9277;37.980;23.748;2022-11-20T14:42:11;10.48;;;2.97;;
18302;SDS011;9277;37.980;23.748;2022-11-20T14:44:40;6.82;;;2.50;;
18302;SDS011;9277;37.980;23.748;2022-11-20T14:47:10;10.95;;;3.08;;
18302;SDS011;9277;37.980;23.748;2022-11-20T14:49:38;12.52;;;2.65;;
18302;SDS011;9277;37.980;23.748;2022-11-20T14:52:10;11.52;;;2.78;;
18302;SDS011;9277;37.980;23.748;2022-11-20T14:54:42;17.48;;;3.17;;
18302;SDS011;9277;37.980;23.748;2022-11-20T14:57:18;15.30;;;2.95;;
18302;SDS011;9277;37.980;23.748;2022-11-20T14:59:46;13.98;;;4.18;;
18302;SDS011;9277;37.980;23.748;2022-11-20T15:02:14;13.02;;;2.80;;
18302;SDS011;9277;37.980;23.748;2022-11-20T15:04:45;10.23;;;2.95;;